Startpagina
METAR-TAF:

METAR-TAF

Vliegvelden :

Aeroporto di Genova Cristoforo Colombo

Genua, Italië

breedte: 44-25N, lengte: 008-51E, hoogte: 2 m

Actueel weer

Dit bericht is 38 minuten geleden gemaakt, om 12:20 UTC
Wind 4 kt uit het zuidzuidoosten
Temperatuur 16°C
Vochtigheid 77%
Druk 1023 hPa
Zicht 10 km of meer
geen wolken onder 1500 m en geen cumulonimbus

METAR: LIMJ 101220Z 15004KT CAVOK 16/12 Q1023

Tijdstip: 14:58 (12:58 UTC)

Verwachting

Dit bericht is 1 uur en het 58 minuten geleden gemaakt, om 11:00 UTC
Verwachting geldig van 10 om 12 UTC tot 11 om 12 UTC
Wind 5 kt uit variabele richting
Zicht 10 km of meer
geen wolken onder 1500 m en geen cumulonimbus

TAF: LIMJ 101100Z 1012/1112 VRB05KT CAVOK

Waarnemingen en weersverwachtingen van meer dan 4000 vliegvelden (METAR en TAF).

De beschikbare stations zijn de gele en rode punten op de kaart.

Ga met uw muis naar het station om de naam te zien.

Klik dan om waarnemingen en weersverwachtingen te zien.

kaart wijzigen: klik op de groene knoppen met een zwart kruis om in te zoomen, op de groene knop met een streepje om uit te zoomen of op de groene pijlen voor aangrenzende kaarten.


METAR-TAF: